Time;durP1;ratioP1;P1;durP2;ratioP2;P2;SDS_P1;SDS_P2;PMS_P1;PMS_P2;Temp;Humidity;BMP_temperature;BMP_pressure;BME280_temperature;BME280_humidity;BME280_pressure;Samples;Min_cycle;Max_cycle;Signal;HPM_P1;HPM_P2
2023/03/14 00:01:51;;;;;;;;;;;10.30;99.90;;;;;;5068425;28;19999;-63
2023/03/14 00:04:17;;;;;;;;;;;10.30;99.90;;;;;;5073068;28;19935;-62
2023/03/14 00:06:42;;;;;;;;;;;10.30;99.90;;;;;;5071623;28;19923;-63
2023/03/14 00:09:08;;;;;;;;;;;10.30;99.90;;;;;;5074865;28;19994;-63
2023/03/14 00:11:34;;;;;;;;;;;10.30;99.90;;;;;;5062761;28;19959;-62
2023/03/14 00:13:59;;;;;;;;;;;10.30;99.90;;;;;;5068287;28;19919;-63
2023/03/14 00:16:25;;;;;;;;;;;10.30;99.90;;;;;;5075073;28;19920;-64
2023/03/14 00:18:51;;;;;;;;;;;10.30;99.90;;;;;;5073718;28;19919;-61
2023/03/14 00:24:19;;;;;;;;;;;10.30;99.90;;;;;;5074637;28;20382;-64
2023/03/14 00:29:48;;;;;;;;;;;10.30;99.90;;;;;;5074513;28;20303;-63
2023/03/14 00:32:13;;;;;;;;;;;10.30;99.90;;;;;;5064920;28;20375;-62
2023/03/14 00:34:39;;;;;;;;;;;10.30;99.90;;;;;;5055486;28;20015;-62
2023/03/14 00:37:05;;;;;;;;;;;10.30;99.90;;;;;;5062944;28;19920;-62
2023/03/14 00:39:31;;;;;;;;;;;10.40;99.90;;;;;;5060681;28;19921;-62
2023/03/14 00:41:56;;;;;;;;;;;10.40;99.90;;;;;;5056700;28;20308;-62
2023/03/14 00:44:22;;;;;;;;;;;10.40;99.90;;;;;;5055996;28;19974;-62
2023/03/14 00:46:48;;;;;;;;;;;10.40;99.90;;;;;;5054368;28;19921;-62
2023/03/14 00:49:13;;;;;;;;;;;10.50;99.90;;;;;;5058835;28;19913;-62
2023/03/14 00:51:39;;;;;;;;;;;10.50;99.90;;;;;;5065703;28;19947;-62
2023/03/14 00:54:04;;;;;;;;;;;10.50;99.90;;;;;;5064010;28;19916;-63
2023/03/14 00:56:30;;;;;;;;;;;10.50;99.90;;;;;;5062043;28;19955;-62
2023/03/14 00:58:56;;;;;;;;;;;10.40;99.90;;;;;;5061839;28;19913;-63
2023/03/14 01:01:22;;;;;;;;;;;10.40;99.90;;;;;;5058352;28;20283;-63
2023/03/14 01:03:50;;;;;;;;;;;10.40;99.90;;;;;;5058291;28;19920;-63
2023/03/14 01:06:17;;;;;;;;;;;10.40;99.90;;;;;;5063138;28;19912;-64
2023/03/14 01:14:31;;;;;;;;;;;10.40;99.90;;;;;;5064772;28;19927;-62
2023/03/14 01:17:00;;;;;;;;;;;10.40;99.90;;;;;;5055228;28;19921;-63
2023/03/14 01:19:27;;;;;;;;;;;10.40;99.90;;;;;;5058611;28;19920;-63
2023/03/14 01:21:53;;;;;;;;;;;10.40;99.90;;;;;;5067267;28;19919;-63
2023/03/14 01:24:18;;;;;;;;;;;10.50;99.90;;;;;;5058056;28;19913;-63
2023/03/14 01:26:44;;;;;;;;;;;10.60;99.90;;;;;;5053033;28;19912;-63
2023/03/14 01:29:09;;;;;;;;;;;10.60;99.90;;;;;;5059819;28;19913;-63
2023/03/14 01:31:35;;;;;;;;;;;10.60;99.90;;;;;;5055971;28;19920;-61
2023/03/14 01:34:01;;;;;;;;;;;10.60;99.90;;;;;;5062548;28;20006;-63
2023/03/14 01:36:26;;;;;;;;;;;10.70;99.90;;;;;;5057308;28;19921;-62
2023/03/14 01:38:52;;;;;;;;;;;10.80;99.90;;;;;;5066340;28;19956;-63
2023/03/14 01:41:20;;;;;;;;;;;10.80;99.90;;;;;;5057781;28;19919;-62
2023/03/14 01:43:46;;;;;;;;;;;10.80;99.90;;;;;;5056370;28;19935;-63
2023/03/14 01:46:34;;;;;;;;;;;10.70;99.90;;;;;;5058707;28;20372;-63
2023/03/14 01:49:03;;;;;;;;;;;10.80;99.90;;;;;;5058905;28;20029;-63
2023/03/14 01:51:42;;;;;;;;;;;10.80;99.90;;;;;;5062566;28;19912;-63
2023/03/14 01:54:28;;;;;;;;;;;10.80;99.90;;;;;;5062787;28;19920;-63
2023/03/14 01:56:57;;;;;;;;;;;10.80;99.90;;;;;;5060060;28;19924;-63
2023/03/14 01:59:23;;;;;;;;;;;10.70;99.90;;;;;;5069802;28;19923;-63
2023/03/14 02:01:49;;;;;;;;;;;10.60;99.90;;;;;;5078837;28;19971;-62
2023/03/14 02:04:16;;;;;;;;;;;10.70;99.90;;;;;;5070167;28;19934;-62
2023/03/14 02:06:48;;;;;;;;;;;10.60;99.90;;;;;;5083502;28;19916;-64
2023/03/14 02:09:14;;;;;;;;;;;10.60;99.90;;;;;;5075116;28;19920;-64
2023/03/14 02:11:39;;;;;;;;;;;10.60;99.90;;;;;;5069609;28;19912;-64
2023/03/14 02:14:05;;;;;;;;;;;10.60;99.90;;;;;;5079325;28;19913;-63
2023/03/14 02:16:31;;;;;;;;;;;10.60;99.90;;;;;;5074911;28;20299;-63
2023/03/14 02:18:57;;;;;;;;;;;10.50;99.90;;;;;;5081171;28;19912;-63
2023/03/14 02:21:34;;;;;;;;;;;9.90;99.90;;;;;;5070759;28;19920;-63
2023/03/14 02:24:16;;;;;;;;;;;9.30;99.90;;;;;;5079385;28;19912;-62
2023/03/14 02:26:44;;;;;;;;;;;8.90;99.90;;;;;;5066438;28;19970;-62
2023/03/14 02:29:09;;;;;;;;;;;8.80;99.90;;;;;;5060725;28;19963;-63
2023/03/14 02:31:35;;;;;;;;;;;8.60;99.90;;;;;;5055213;28;19955;-62
2023/03/14 02:34:01;;;;;;;;;;;8.50;99.90;;;;;;5064331;28;19987;-62
2023/03/14 02:36:27;;;;;;;;;;;8.50;99.90;;;;;;5061695;28;19986;-62
2023/03/14 02:38:52;;;;;;;;;;;8.40;99.90;;;;;;5061837;28;19920;-63
2023/03/14 02:41:18;;;;;;;;;;;8.30;99.90;;;;;;5052086;28;19913;-62
2023/03/14 02:43:44;;;;;;;;;;;8.30;99.90;;;;;;5055242;28;19912;-62
2023/03/14 02:46:11;;;;;;;;;;;8.40;99.90;;;;;;5055933;28;19920;-62
2023/03/14 02:48:43;;;;;;;;;;;8.40;99.90;;;;;;5061900;28;19916;-62
2023/03/14 02:51:08;;;;;;;;;;;8.40;99.90;;;;;;5087323;28;19912;-62
2023/03/14 02:53:35;;;;;;;;;;;8.40;99.90;;;;;;5077797;28;19912;-62
2023/03/14 02:56:01;;;;;;;;;;;8.40;99.90;;;;;;5063156;28;19928;-62
2023/03/14 02:58:27;;;;;;;;;;;8.20;99.90;;;;;;5059672;28;19912;-62
2023/03/14 03:00:53;;;;;;;;;;;8.30;99.90;;;;;;5071310;28;19916;-62
2023/03/14 03:03:19;;;;;;;;;;;8.50;99.90;;;;;;5074499;28;19920;-62
2023/03/14 03:05:47;;;;;;;;;;;8.40;99.90;;;;;;5077252;28;19919;-62
2023/03/14 03:08:13;;;;;;;;;;;8.30;99.90;;;;;;5068876;28;20390;-62
2023/03/14 03:10:38;;;;;;;;;;;8.20;99.90;;;;;;5074984;28;19912;-62
2023/03/14 03:13:04;;;;;;;;;;;8.10;99.90;;;;;;5082717;28;20329;-62
2023/03/14 03:15:32;;;;;;;;;;;8.00;99.90;;;;;;5076127;28;20339;-63
2023/03/14 03:17:57;;;;;;;;;;;7.90;99.90;;;;;;5068344;28;20364;-62
2023/03/14 03:20:23;;;;;;;;;;;7.90;99.90;;;;;;5077445;28;19969;-62
2023/03/14 03:22:49;;;;;;;;;;;7.80;99.90;;;;;;5079003;28;19966;-63
2023/03/14 03:25:15;;;;;;;;;;;7.70;99.90;;;;;;5071904;28;19912;-63
2023/03/14 03:27:40;;;;;;;;;;;7.60;99.90;;;;;;5071958;28;20334;-62
2023/03/14 03:30:07;;;;;;;;;;;7.60;99.90;;;;;;5075933;28;20356;-63
2023/03/14 03:32:32;;;;;;;;;;;7.50;99.90;;;;;;5075612;28;19966;-63
2023/03/14 03:34:58;;;;;;;;;;;7.50;99.90;;;;;;5068857;28;19917;-64
2023/03/14 03:37:24;;;;;;;;;;;7.50;99.90;;;;;;5068559;28;20365;-63
2023/03/14 03:39:50;;;;;;;;;;;7.50;99.90;;;;;;5075815;28;19912;-63
2023/03/14 03:42:16;;;;;;;;;;;7.40;99.90;;;;;;5066254;28;20387;-62
2023/03/14 03:44:41;;;;;;;;;;;7.30;99.90;;;;;;5075716;28;19916;-62
2023/03/14 03:47:07;;;;;;;;;;;7.20;99.90;;;;;;5059396;28;20030;-62
2023/03/14 03:49:32;;;;;;;;;;;7.20;99.90;;;;;;5069781;28;19916;-62
2023/03/14 03:51:58;;;;;;;;;;;7.10;99.90;;;;;;5075336;28;20233;-62
2023/03/14 03:54:24;;;;;;;;;;;7.30;99.90;;;;;;5067940;28;19995;-62
2023/03/14 03:56:50;;;;;;;;;;;7.30;99.90;;;;;;5055106;28;20411;-63
2023/03/14 03:59:16;;;;;;;;;;;7.30;99.90;;;;;;5063326;28;19912;-62
2023/03/14 04:01:42;;;;;;;;;;;7.20;99.90;;;;;;5065475;28;19916;-62
2023/03/14 04:04:08;;;;;;;;;;;7.20;99.90;;;;;;5071534;28;20310;-62
2023/03/14 04:06:33;;;;;;;;;;;7.10;99.90;;;;;;5074831;28;19913;-62
2023/03/14 04:08:59;;;;;;;;;;;7.00;99.90;;;;;;5075551;28;20003;-62
2023/03/14 04:11:24;;;;;;;;;;;7.00;99.90;;;;;;5076769;28;19913;-61
2023/03/14 04:13:50;;;;;;;;;;;7.20;99.90;;;;;;5078978;28;20419;-62
2023/03/14 04:16:20;;;;;;;;;;;7.40;99.90;;;;;;5078644;28;19920;-62
2023/03/14 04:18:46;;;;;;;;;;;7.50;99.90;;;;;;5079144;28;19966;-62
2023/03/14 04:21:11;;;;;;;;;;;7.50;99.90;;;;;;5062077;28;19917;-62
2023/03/14 04:23:37;;;;;;;;;;;7.40;99.90;;;;;;5077332;28;19913;-63
2023/03/14 04:26:03;;;;;;;;;;;7.50;99.90;;;;;;5080318;28;20337;-62
2023/03/14 04:28:28;;;;;;;;;;;7.40;99.90;;;;;;5074007;28;19920;-62
2023/03/14 04:30:54;;;;;;;;;;;7.30;99.90;;;;;;5066945;28;19981;-63
2023/03/14 04:33:20;;;;;;;;;;;7.30;99.90;;;;;;5072897;28;20329;-63
2023/03/14 04:35:46;;;;;;;;;;;7.20;99.90;;;;;;5084914;28;20264;-63
2023/03/14 04:38:12;;;;;;;;;;;7.20;99.90;;;;;;5076067;28;19982;-62
2023/03/14 04:40:38;;;;;;;;;;;7.10;99.90;;;;;;5073989;28;20279;-62
2023/03/14 04:43:03;;;;;;;;;;;7.00;99.90;;;;;;5077946;28;20318;-62
2023/03/14 04:45:29;;;;;;;;;;;6.80;99.90;;;;;;5072682;28;19916;-62
2023/03/14 04:47:54;;;;;;;;;;;6.60;99.90;;;;;;5078069;28;20016;-62
2023/03/14 04:50:20;;;;;;;;;;;6.60;99.90;;;;;;5080880;28;19987;-64
2023/03/14 04:52:46;;;;;;;;;;;6.60;99.90;;;;;;5080346;28;19912;-62
2023/03/14 04:55:11;;;;;;;;;;;6.50;99.90;;;;;;5071822;28;19920;-62
2023/03/14 04:57:37;;;;;;;;;;;6.30;99.90;;;;;;5081880;28;19975;-62
2023/03/14 05:00:06;;;;;;;;;;;6.30;99.90;;;;;;5073668;28;19944;-63
2023/03/14 05:02:31;;;;;;;;;;;6.30;99.90;;;;;;5075487;28;19913;-62
2023/03/14 05:04:57;;;;;;;;;;;6.20;99.90;;;;;;5071951;28;20285;-63
2023/03/14 05:07:23;;;;;;;;;;;6.20;99.90;;;;;;5072474;28;19920;-61
2023/03/14 05:09:48;;;;;;;;;;;6.10;99.90;;;;;;5073875;28;19912;-61
2023/03/14 05:12:14;;;;;;;;;;;6.10;99.90;;;;;;5070602;28;20011;-63
2023/03/14 05:14:39;;;;;;;;;;;6.10;99.90;;;;;;5071617;28;19912;-62
2023/03/14 05:17:05;;;;;;;;;;;6.00;99.90;;;;;;5080012;28;19920;-63
2023/03/14 05:19:31;;;;;;;;;;;5.90;99.90;;;;;;5080678;28;20314;-63
2023/03/14 05:21:57;;;;;;;;;;;6.00;99.90;;;;;;5070107;28;19999;-62
2023/03/14 05:24:22;;;;;;;;;;;5.90;99.90;;;;;;5075075;28;20570;-62
2023/03/14 05:26:48;;;;;;;;;;;5.80;99.90;;;;;;5071360;28;20359;-65
2023/03/14 05:29:13;;;;;;;;;;;5.80;99.90;;;;;;5084972;28;19935;-62
2023/03/14 05:31:39;;;;;;;;;;;5.70;99.90;;;;;;5074241;28;19912;-62
2023/03/14 05:34:05;;;;;;;;;;;5.70;99.90;;;;;;5075780;28;19995;-62
2023/03/14 05:36:30;;;;;;;;;;;5.70;99.90;;;;;;5072335;28;20338;-62
2023/03/14 05:38:56;;;;;;;;;;;5.60;99.90;;;;;;5077422;28;19984;-62
2023/03/14 05:41:21;;;;;;;;;;;5.50;99.90;;;;;;5078754;28;20345;-62
2023/03/14 05:43:47;;;;;;;;;;;5.50;99.90;;;;;;5071419;28;19913;-62
2023/03/14 05:46:12;;;;;;;;;;;5.50;99.90;;;;;;5081830;28;20260;-62
2023/03/14 05:48:38;;;;;;;;;;;5.40;99.90;;;;;;5072209;28;20007;-63
2023/03/14 05:51:04;;;;;;;;;;;5.40;99.90;;;;;;5077561;28;20276;-62
2023/03/14 05:53:33;;;;;;;;;;;5.30;99.90;;;;;;5073569;28;19912;-63
2023/03/14 05:55:58;;;;;;;;;;;5.20;99.90;;;;;;5073317;28;19986;-63
2023/03/14 05:58:24;;;;;;;;;;;5.20;99.90;;;;;;5075049;28;20013;-62
2023/03/14 06:00:49;;;;;;;;;;;5.10;99.90;;;;;;5070961;28;19995;-63
2023/03/14 06:03:15;;;;;;;;;;;5.20;99.90;;;;;;5080041;28;19934;-62
2023/03/14 06:05:41;;;;;;;;;;;5.10;99.90;;;;;;5069423;28;19966;-62
2023/03/14 06:08:06;;;;;;;;;;;5.10;99.90;;;;;;5080910;28;19916;-62
2023/03/14 06:10:32;;;;;;;;;;;5.00;99.90;;;;;;5066894;28;19922;-62
2023/03/14 06:12:58;;;;;;;;;;;5.00;99.90;;;;;;5071955;28;19912;-62
2023/03/14 06:15:23;;;;;;;;;;;5.00;99.90;;;;;;5080305;28;19928;-62
2023/03/14 06:17:49;;;;;;;;;;;5.00;99.90;;;;;;5068750;28;19999;-62
2023/03/14 06:20:15;;;;;;;;;;;5.00;99.90;;;;;;5073888;28;19965;-62
2023/03/14 06:22:41;;;;;;;;;;;5.00;99.90;;;;;;5072761;28;20427;-63
2023/03/14 06:25:07;;;;;;;;;;;5.00;99.90;;;;;;5066940;28;19912;-62
2023/03/14 06:27:33;;;;;;;;;;;5.00;99.90;;;;;;5070774;28;19982;-63
2023/03/14 06:29:59;;;;;;;;;;;5.00;99.90;;;;;;5078722;28;19999;-62
2023/03/14 06:32:25;;;;;;;;;;;5.10;99.90;;;;;;5082136;28;20363;-62
2023/03/14 06:34:50;;;;;;;;;;;5.10;99.90;;;;;;5052265;28;19991;-61
2023/03/14 06:37:16;;;;;;;;;;;5.10;99.90;;;;;;5058253;28;20023;-62
2023/03/14 06:39:43;;;;;;;;;;;5.20;99.90;;;;;;5056882;28;20298;-62
2023/03/14 06:42:09;;;;;;;;;;;5.20;99.90;;;;;;5056616;28;19920;-62
2023/03/14 06:44:35;;;;;;;;;;;5.20;99.90;;;;;;5072705;28;19912;-62
2023/03/14 06:47:00;;;;;;;;;;;5.20;99.90;;;;;;5068537;28;19920;-62
2023/03/14 06:49:26;;;;;;;;;;;5.20;99.90;;;;;;5066938;28;19995;-62
2023/03/14 06:51:51;;;;;;;;;;;5.30;99.90;;;;;;5078626;28;19959;-61
2023/03/14 06:54:17;;;;;;;;;;;5.20;99.90;;;;;;5071023;28;19912;-61
2023/03/14 06:56:43;;;;;;;;;;;5.30;99.90;;;;;;5069221;28;19920;-61
2023/03/14 06:59:08;;;;;;;;;;;5.30;99.90;;;;;;5070060;28;19919;-61
2023/03/14 07:01:34;;;;;;;;;;;5.30;99.90;;;;;;5066409;28;20489;-62
2023/03/14 07:04:00;;;;;;;;;;;5.20;99.90;;;;;;5074001;28;19948;-61
2023/03/14 07:06:26;;;;;;;;;;;5.30;99.90;;;;;;5078693;28;19966;-62
2023/03/14 07:08:52;;;;;;;;;;;5.30;99.90;;;;;;5073951;28;20310;-63
2023/03/14 07:11:17;;;;;;;;;;;5.40;99.90;;;;;;5076895;28;19966;-63
2023/03/14 07:13:43;;;;;;;;;;;5.40;99.90;;;;;;5083216;28;19912;-61
2023/03/14 07:16:08;;;;;;;;;;;5.40;99.90;;;;;;5068579;28;19921;-62
2023/03/14 07:18:34;;;;;;;;;;;5.40;99.90;;;;;;5068664;28;20375;-63
2023/03/14 07:21:00;;;;;;;;;;;5.40;99.90;;;;;;5071367;28;20287;-63
2023/03/14 07:23:25;;;;;;;;;;;5.50;99.90;;;;;;5073866;28;20352;-62
2023/03/14 07:25:53;;;;;;;;;;;5.60;99.90;;;;;;5072532;28;19981;-62
2023/03/14 07:28:19;;;;;;;;;;;5.60;99.90;;;;;;5054174;28;20287;-62
2023/03/14 07:30:46;;;;;;;;;;;5.60;99.90;;;;;;5074915;28;19912;-62
2023/03/14 07:33:11;;;;;;;;;;;5.60;99.90;;;;;;5074956;28;19919;-62
2023/03/14 07:35:37;;;;;;;;;;;5.70;99.90;;;;;;5061393;28;19924;-63
2023/03/14 07:38:02;;;;;;;;;;;5.70;99.90;;;;;;5072034;28;20417;-62
2023/03/14 07:40:28;;;;;;;;;;;5.80;99.90;;;;;;5080254;28;19956;-60
2023/03/14 07:42:55;;;;;;;;;;;5.90;99.90;;;;;;5071401;28;19946;-62
2023/03/14 07:45:20;;;;;;;;;;;5.90;99.90;;;;;;5074344;28;19916;-62
2023/03/14 07:47:46;;;;;;;;;;;5.90;99.90;;;;;;5074625;28;19921;-62
2023/03/14 07:50:11;;;;;;;;;;;5.90;99.90;;;;;;5068703;28;20293;-62
2023/03/14 07:52:37;;;;;;;;;;;6.00;99.90;;;;;;5068725;28;19912;-62
2023/03/14 07:55:03;;;;;;;;;;;6.10;99.90;;;;;;5060469;28;20372;-63
2023/03/14 07:57:28;;;;;;;;;;;6.10;99.90;;;;;;5068713;28;19921;-62
2023/03/14 07:59:54;;;;;;;;;;;6.20;99.90;;;;;;5062832;28;19920;-61
2023/03/14 08:02:22;;;;;;;;;;;6.30;99.90;;;;;;5065071;28;19925;-62
2023/03/14 08:04:47;;;;;;;;;;;6.60;99.90;;;;;;5066138;28;19924;-62
2023/03/14 08:07:13;;;;;;;;;;;6.70;99.90;;;;;;5067622;28;19916;-61
2023/03/14 08:09:38;;;;;;;;;;;6.80;99.90;;;;;;5068004;28;19994;-62
2023/03/14 08:12:04;;;;;;;;;;;7.00;99.90;;;;;;5068019;28;19920;-62
2023/03/14 08:14:30;;;;;;;;;;;7.10;99.90;;;;;;5067611;28;20054;-62
2023/03/14 08:16:56;;;;;;;;;;;7.20;99.90;;;;;;5060466;28;19920;-63
2023/03/14 08:19:22;;;;;;;;;;;7.10;99.90;;;;;;5073813;28;19920;-63
2023/03/14 08:21:47;;;;;;;;;;;7.20;99.90;;;;;;5063802;28;19935;-63
2023/03/14 08:24:13;;;;;;;;;;;7.20;99.90;;;;;;5077152;28;20390;-63
2023/03/14 08:26:38;;;;;;;;;;;7.30;99.90;;;;;;5060757;28;19913;-63
2023/03/14 08:29:04;;;;;;;;;;;7.30;99.90;;;;;;5062322;28;19920;-63
2023/03/14 08:31:30;;;;;;;;;;;7.20;99.90;;;;;;5073542;28;19912;-63
2023/03/14 08:33:58;;;;;;;;;;;7.20;99.90;;;;;;5067118;28;20371;-63
2023/03/14 08:36:23;;;;;;;;;;;7.20;99.90;;;;;;5065641;28;19921;-63
2023/03/14 08:38:49;;;;;;;;;;;7.30;99.90;;;;;;5062750;28;20317;-63
2023/03/14 08:41:14;;;;;;;;;;;7.40;99.90;;;;;;5073068;28;20276;-64
2023/03/14 08:43:40;;;;;;;;;;;7.40;99.90;;;;;;5061867;28;20426;-62
2023/03/14 08:46:05;;;;;;;;;;;7.50;99.90;;;;;;5055821;28;19913;-63
2023/03/14 08:48:31;;;;;;;;;;;7.50;99.90;;;;;;5070503;28;19993;-63
2023/03/14 08:51:03;;;;;;;;;;;7.30;99.90;;;;;;5058279;28;19919;-63
2023/03/14 08:53:29;;;;;;;;;;;7.30;99.90;;;;;;5061634;28;20708;-62
2023/03/14 08:55:55;;;;;;;;;;;7.30;99.90;;;;;;5060423;28;19928;-62
2023/03/14 08:58:22;;;;;;;;;;;7.30;99.90;;;;;;5064834;28;19967;-62
2023/03/14 09:00:48;;;;;;;;;;;7.40;99.90;;;;;;5079260;28;19912;-59
2023/03/14 09:03:14;;;;;;;;;;;7.50;99.90;;;;;;5068219;28;19989;-60
2023/03/14 09:05:40;;;;;;;;;;;7.60;99.90;;;;;;5069281;28;19913;-60
2023/03/14 09:08:05;;;;;;;;;;;7.70;99.90;;;;;;5069263;28;19920;-61
2023/03/14 09:10:31;;;;;;;;;;;7.70;99.90;;;;;;5064472;28;19966;-61
2023/03/14 09:12:58;;;;;;;;;;;7.80;99.90;;;;;;5058167;28;19920;-60
2023/03/14 09:15:23;;;;;;;;;;;7.90;99.90;;;;;;5064251;28;19959;-61
2023/03/14 09:17:49;;;;;;;;;;;7.80;99.90;;;;;;5063939;28;19963;-60
2023/03/14 09:20:15;;;;;;;;;;;7.70;99.90;;;;;;5060727;28;20015;-60
2023/03/14 09:22:40;;;;;;;;;;;7.70;99.90;;;;;;5067826;28;20334;-60
2023/03/14 09:25:06;;;;;;;;;;;7.80;99.90;;;;;;5069627;28;20439;-60
2023/03/14 09:27:32;;;;;;;;;;;7.80;99.90;;;;;;5073733;28;19923;-60
2023/03/14 09:29:57;;;;;;;;;;;7.70;99.90;;;;;;5062784;28;19966;-60
2023/03/14 09:32:23;;;;;;;;;;;7.80;99.90;;;;;;5069043;28;20303;-60
2023/03/14 09:34:49;;;;;;;;;;;7.90;99.90;;;;;;5064990;28;19955;-60
2023/03/14 09:37:16;;;;;;;;;;;7.90;99.90;;;;;;5066911;28;19928;-60
2023/03/14 09:39:41;;;;;;;;;;;7.90;99.90;;;;;;5069933;28;19920;-60
2023/03/14 09:42:08;;;;;;;;;;;8.00;99.90;;;;;;5065980;28;19916;-60
2023/03/14 09:44:39;;;;;;;;;;;8.20;99.90;;;;;;5070633;28;19919;-60
2023/03/14 09:47:10;;;;;;;;;;;8.20;99.90;;;;;;5059510;28;19985;-60
2023/03/14 09:49:38;;;;;;;;;;;8.20;99.90;;;;;;5059235;28;19952;-60
2023/03/14 09:52:23;;;;;;;;;;;8.30;99.90;;;;;;5067263;28;19912;-61
2023/03/14 09:54:57;;;;;;;;;;;8.30;99.90;;;;;;5066540;28;20009;-61
2023/03/14 09:57:26;;;;;;;;;;;8.50;99.90;;;;;;5069077;28;19932;-60
2023/03/14 09:59:54;;;;;;;;;;;8.40;99.90;;;;;;5067598;28;19912;-60
2023/03/14 10:02:21;;;;;;;;;;;8.50;99.90;;;;;;5060687;28;20060;-60
2023/03/14 10:04:48;;;;;;;;;;;8.50;99.90;;;;;;5064319;28;19966;-60
2023/03/14 10:07:19;;;;;;;;;;;8.30;99.90;;;;;;5061532;28;19920;-60
2023/03/14 10:09:45;;;;;;;;;;;8.20;99.90;;;;;;5061913;28;19924;-60
2023/03/14 10:12:11;;;;;;;;;;;8.20;99.90;;;;;;5063094;28;20291;-59
2023/03/14 10:14:37;;;;;;;;;;;8.20;99.90;;;;;;5062226;28;19912;-60
2023/03/14 10:17:07;;;;;;;;;;;8.40;99.90;;;;;;5063628;28;19921;-60
2023/03/14 10:19:35;;;;;;;;;;;8.40;99.90;;;;;;5067480;28;19920;-60
2023/03/14 10:22:02;;;;;;;;;;;8.40;99.90;;;;;;5062525;28;19948;-60
2023/03/14 10:24:35;;;;;;;;;;;8.50;99.90;;;;;;5060900;28;19920;-60
2023/03/14 10:27:05;;;;;;;;;;;8.80;99.90;;;;;;5064832;28;19920;-60
2023/03/14 10:29:34;;;;;;;;;;;8.90;99.90;;;;;;5062827;28;19916;-60
2023/03/14 10:32:01;;;;;;;;;;;8.90;99.90;;;;;;5061579;28;19920;-60
2023/03/14 10:34:36;;;;;;;;;;;8.60;99.90;;;;;;5064830;28;19919;-60
2023/03/14 10:37:17;;;;;;;;;;;8.40;99.90;;;;;;5064824;28;19920;-60
2023/03/14 10:39:46;;;;;;;;;;;8.30;99.90;;;;;;5067687;28;19916;-61
2023/03/14 10:42:14;;;;;;;;;;;8.20;99.90;;;;;;5060003;28;20461;-61
2023/03/14 10:44:41;;;;;;;;;;;8.50;99.90;;;;;;5065021;28;19920;-60
2023/03/14 10:47:15;;;;;;;;;;;8.70;99.90;;;;;;5063515;28;20007;-60
2023/03/14 10:49:40;;;;;;;;;;;8.80;99.90;;;;;;5061356;28;19917;-61
2023/03/14 10:52:22;;;;;;;;;;;8.90;99.90;;;;;;5065758;28;19935;-60
2023/03/14 10:54:49;;;;;;;;;;;8.60;99.90;;;;;;5059089;28;19995;-61
2023/03/14 10:57:14;;;;;;;;;;;8.50;99.90;;;;;;5054604;28;19939;-61
2023/03/14 10:59:42;;;;;;;;;;;8.60;99.90;;;;;;5064452;28;20003;-62
2023/03/14 11:02:23;;;;;;;;;;;8.70;99.90;;;;;;5066552;28;19919;-61
2023/03/14 11:04:59;;;;;;;;;;;9.00;99.90;;;;;;5058365;28;20359;-59
2023/03/14 11:07:41;;;;;;;;;;;9.00;99.90;;;;;;5050282;28;19924;-61
2023/03/14 11:10:19;;;;;;;;;;;9.30;99.90;;;;;;5055160;28;19917;-61
2023/03/14 11:13:06;;;;;;;;;;;9.40;99.90;;;;;;5055672;28;19928;-61
2023/03/14 11:15:35;;;;;;;;;;;9.10;99.90;;;;;;5061926;28;19931;-61
2023/03/14 11:18:11;;;;;;;;;;;8.50;99.90;;;;;;5060101;28;19912;-61
2023/03/14 11:20:43;;;;;;;;;;;8.30;99.90;;;;;;5056896;28;20015;-61
2023/03/14 11:23:27;;;;;;;;;;;8.40;99.90;;;;;;5061601;28;20355;-61
2023/03/14 11:25:57;;;;;;;;;;;8.40;99.90;;;;;;5059577;28;19923;-60
2023/03/14 11:28:30;;;;;;;;;;;8.60;99.90;;;;;;5049232;28;20287;-61
2023/03/14 11:31:00;;;;;;;;;;;8.90;99.90;;;;;;5058035;28;19913;-61
2023/03/14 11:33:26;;;;;;;;;;;9.70;99.90;;;;;;5063807;28;20419;-62
2023/03/14 11:35:58;;;;;;;;;;;9.40;99.90;;;;;;5073244;28;19920;-61
2023/03/14 11:38:32;;;;;;;;;;;9.60;99.90;;;;;;5067175;28;20015;-61
2023/03/14 11:40:59;;;;;;;;;;;10.40;99.90;;;;;;5057464;28;19913;-60
2023/03/14 11:43:34;;;;;;;;;;;10.70;99.90;;;;;;5061905;28;19966;-60
2023/03/14 11:46:05;;;;;;;;;;;10.60;99.90;;;;;;5063066;28;20367;-61
2023/03/14 11:48:51;;;;;;;;;;;9.80;99.90;;;;;;5060745;28;20550;-60
2023/03/14 11:51:23;;;;;;;;;;;9.50;99.90;;;;;;5057650;28;20257;-61
2023/03/14 11:53:54;;;;;;;;;;;9.80;99.90;;;;;;5050608;28;20027;-61
2023/03/14 11:56:25;;;;;;;;;;;10.10;99.90;;;;;;5062716;28;19932;-61
2023/03/14 11:59:11;;;;;;;;;;;10.20;99.90;;;;;;5058898;28;19916;-60
2023/03/14 12:01:44;;;;;;;;;;;10.50;99.90;;;;;;5056429;28;19958;-61
2023/03/14 12:04:15;;;;;;;;;;;11.20;99.90;;;;;;5060760;28;19963;-62
2023/03/14 12:06:46;;;;;;;;;;;11.60;99.90;;;;;;5064938;28;19913;-61
2023/03/14 12:09:13;;;;;;;;;;;12.00;99.90;;;;;;5061967;28;20372;-61
2023/03/14 12:11:40;;;;;;;;;;;12.30;99.90;;;;;;5064250;28;20647;-61
2023/03/14 12:14:18;;;;;;;;;;;12.40;99.90;;;;;;5065457;28;19919;-61
2023/03/14 12:16:45;;;;;;;;;;;12.50;99.90;;;;;;5064803;28;19970;-61
2023/03/14 12:19:24;;;;;;;;;;;12.40;99.90;;;;;;5065625;28;19934;-61
2023/03/14 12:21:55;;;;;;;;;;;12.30;99.90;;;;;;5058189;28;19960;-61
2023/03/14 12:24:31;;;;;;;;;;;12.50;99.90;;;;;;5064194;28;19948;-63
2023/03/14 12:27:01;;;;;;;;;;;12.40;99.90;;;;;;5066993;28;19917;-61
2023/03/14 12:29:27;;;;;;;;;;;11.80;99.90;;;;;;5069975;28;19960;-61
2023/03/14 12:32:01;;;;;;;;;;;11.60;99.90;;;;;;5064227;28;19975;-61
2023/03/14 12:34:28;;;;;;;;;;;12.30;99.90;;;;;;5065932;28;20324;-61
2023/03/14 12:36:58;;;;;;;;;;;13.20;99.90;;;;;;5073470;28;20529;-61
2023/03/14 12:39:43;;;;;;;;;;;12.20;99.90;;;;;;5061887;28;19936;-64
2023/03/14 12:42:27;;;;;;;;;;;11.80;99.90;;;;;;5067492;28;19920;-60
2023/03/14 12:45:06;;;;;;;;;;;12.30;99.90;;;;;;5062567;28;19939;-60
2023/03/14 12:47:31;;;;;;;;;;;13.20;99.90;;;;;;5064888;28;19921;-61
2023/03/14 12:50:07;;;;;;;;;;;13.10;99.90;;;;;;5062925;28;19912;-62
2023/03/14 12:52:52;;;;;;;;;;;13.10;99.90;;;;;;5065721;28;20279;-63
2023/03/14 12:55:24;;;;;;;;;;;12.70;99.90;;;;;;5052242;28;19916;-61
2023/03/14 12:57:59;;;;;;;;;;;12.80;99.90;;;;;;5060359;28;19919;-61
2023/03/14 13:00:30;;;;;;;;;;;12.80;99.90;;;;;;5059188;28;20908;-64
2023/03/14 13:03:02;;;;;;;;;;;12.70;99.90;;;;;;5059816;28;19927;-63
2023/03/14 13:05:27;;;;;;;;;;;12.70;99.90;;;;;;5069587;28;19923;-63
2023/03/14 13:07:59;;;;;;;;;;;11.90;99.90;;;;;;5064208;28;20311;-64
2023/03/14 13:10:26;;;;;;;;;;;11.60;99.90;;;;;;5068583;28;19921;-64
2023/03/14 13:13:09;;;;;;;;;;;11.80;99.90;;;;;;5063556;28;20418;-63
2023/03/14 13:15:35;;;;;;;;;;;12.00;99.90;;;;;;5063191;28;20363;-64
2023/03/14 13:18:17;;;;;;;;;;;11.70;99.90;;;;;;5064533;28;19919;-63
2023/03/14 13:20:46;;;;;;;;;;;11.50;99.90;;;;;;5057782;28;19916;-62
2023/03/14 13:23:21;;;;;;;;;;;11.20;99.90;;;;;;5063069;28;19913;-62
2023/03/14 13:25:47;;;;;;;;;;;10.90;99.90;;;;;;5067032;28;19923;-63
2023/03/14 13:28:13;;;;;;;;;;;10.80;99.90;;;;;;5068706;28;19916;-63
2023/03/14 13:30:40;;;;;;;;;;;10.80;99.90;;;;;;5060192;28;19920;-64
2023/03/14 13:33:06;;;;;;;;;;;11.00;99.90;;;;;;5065047;28;20374;-63
2023/03/14 13:35:39;;;;;;;;;;;11.90;99.90;;;;;;5067450;28;19920;-63
2023/03/14 13:38:05;;;;;;;;;;;13.10;99.90;;;;;;5064499;28;19912;-64
2023/03/14 13:40:31;;;;;;;;;;;13.30;98.30;;;;;;5062009;28;20065;-63
2023/03/14 13:43:17;;;;;;;;;;;12.80;99.90;;;;;;5061028;28;19912;-62
2023/03/14 13:45:45;;;;;;;;;;;12.40;99.90;;;;;;5065596;28;20011;-63
2023/03/14 13:48:12;;;;;;;;;;;12.10;99.90;;;;;;5067066;28;19952;-62
2023/03/14 13:50:38;;;;;;;;;;;11.80;99.90;;;;;;5060160;28;19959;-66
2023/03/14 13:53:03;;;;;;;;;;;12.00;99.90;;;;;;5063896;28;20436;-64
2023/03/14 13:55:29;;;;;;;;;;;12.10;99.90;;;;;;5062292;28;19919;-63
2023/03/14 13:57:55;;;;;;;;;;;11.70;99.90;;;;;;5066507;28;19924;-63
2023/03/14 14:00:21;;;;;;;;;;;11.30;99.90;;;;;;5064595;28;19970;-62
2023/03/14 14:02:47;;;;;;;;;;;11.00;99.90;;;;;;5061187;28;19921;-66
2023/03/14 14:05:13;;;;;;;;;;;10.80;99.90;;;;;;5057072;28;19912;-62
2023/03/14 14:07:40;;;;;;;;;;;11.40;99.90;;;;;;5063031;28;19919;-62
2023/03/14 14:10:06;;;;;;;;;;;12.80;99.90;;;;;;5057327;28;20007;-65
2023/03/14 14:12:40;;;;;;;;;;;13.70;97.50;;;;;;5059023;28;20035;-62
2023/03/14 14:15:06;;;;;;;;;;;14.30;92.90;;;;;;5062197;28;20356;-63
2023/03/14 14:17:40;;;;;;;;;;;15.00;91.40;;;;;;5067190;28;19935;-63
2023/03/14 14:20:08;;;;;;;;;;;14.80;89.70;;;;;;5061108;28;19913;-64
2023/03/14 14:22:33;;;;;;;;;;;14.70;86.30;;;;;;5062785;28;20003;-63
2023/03/14 14:25:00;;;;;;;;;;;14.30;90.20;;;;;;5061299;28;20003;-64
2023/03/14 14:27:34;;;;;;;;;;;14.50;85.20;;;;;;5064862;28;19927;-63
2023/03/14 14:30:24;;;;;;;;;;;13.40;91.40;;;;;;5062508;28;20365;-64
2023/03/14 14:32:50;;;;;;;;;;;13.00;92.30;;;;;;5059832;28;20022;-64
2023/03/14 14:35:35;;;;;;;;;;;13.30;95.90;;;;;;5066132;28;19920;-64
2023/03/14 14:38:01;;;;;;;;;;;13.80;91.90;;;;;;5062390;28;20328;-65
2023/03/14 14:40:27;;;;;;;;;;;14.20;89.40;;;;;;5062885;28;19913;-63
2023/03/14 14:42:53;;;;;;;;;;;14.70;80.30;;;;;;5064779;28;19923;-63